Résultats de la compétition "Demi-Finale Longue Distance SO Bonneuil-Matours 05/04/2009" du 05-04-2009 organisée par le club 8607
     
  Télécharger le fichier CSV.  
     
     

 Circuit "G"

Licence Nom Prénom Temps CN
précédent
Score sur
la course
Différence
2401DEVILLENelly0:40:2845614049-512
17696JASPARDMichel0:43:2731653771+606
1000LEFOUESTJoseph0:44:2738093686-123
1052DOMENICIJ-Claude0:45:5533243569+245
395BLASCONicole0:46:4537923505-287
21422VALENTINEmmanuelle0:47:29N/A3451N/A
1380DIEUDONNEMadeleine0:49:5240923286-806
5033THIEBAULTMonique0:49:5340263285-741
15630DIRRINGERM-Claude0:52:1130043140+136
1106NATALIAnnie0:53:5928833035+152
16976RICKARDMichael0:56:3628272895+68
6826DUVOUXFrance0:59:0026792777+98
16634BAUDOINAnnie1:02:5327782606-172
570GUICHARDONGeorges1:03:4019312574+643
3619LAGOIDETColette1:09:3725942354-240
1054GRANDJeanine1:09:5417602344+584
647LARMINACHGenevieve1:15:5823512157-194
11368LAUNEYNoella1:19:4219752056+81
14632ALLANCONClaudine1:20:2215492039+490
10010SIMONDenise1:22:2410951989+894
15894LUDEWIG-JAMESCarol1:23:0923831971-412
1001LEFOUESTM-Therese1:26:4517421889+147
13991POUPIERClaudine1:32:0822661779-487
21135REVERSATLucie1:32:55N/A1764N/A
6886FRANTZFrancoiseN/A34320-3432
934TESTOUDMadeleineN/A20440-2044

  Indice de confiance du circuit (moyenne des différences entre CN et score sur la course des 3 à 10 premiers) : 241






 Retour